createdAt,value
2022-10-27T00:01:23.444Z,101767.92
2022-10-27T00:03:29.955Z,101768.55
2022-10-27T00:05:36.380Z,101770.08
2022-10-27T00:07:42.931Z,101771.73
2022-10-27T00:09:49.062Z,101772.08
2022-10-27T00:11:57.497Z,101767.20
2022-10-27T00:14:03.850Z,101767.11
2022-10-27T00:16:16.565Z,101770.46
2022-10-27T00:18:23.606Z,101769.30
2022-10-27T00:20:30.551Z,101770.91
2022-10-27T00:22:36.521Z,101768.28
2022-10-27T00:24:43.824Z,101770.71
2022-10-27T00:26:50.290Z,101771.25
2022-10-27T00:28:56.894Z,101775.38
2022-10-27T00:31:12.481Z,101779.52
2022-10-27T00:33:19.271Z,101784.34
2022-10-27T00:35:25.473Z,101788.71
2022-10-27T00:37:31.518Z,101789.54
2022-10-27T00:39:37.863Z,101791.36
2022-10-27T00:41:44.518Z,101790.79
2022-10-27T00:43:51.189Z,101785.93
2022-10-27T00:46:02.806Z,101787.58
2022-10-27T00:48:09.132Z,101794.23
2022-10-27T00:50:21.382Z,101796.92
2022-10-27T00:52:59.684Z,101795.26
2022-10-27T00:55:21.027Z,101797.73
2022-10-27T00:57:28.653Z,101801.61
2022-10-27T00:59:35.703Z,101804.29
2022-10-27T01:01:43.158Z,101798.86
2022-10-27T01:03:49.649Z,101800.21
2022-10-27T01:05:58.432Z,101802.66
2022-10-27T01:08:06.834Z,101804.59
2022-10-27T01:10:15.987Z,101806.34
2022-10-27T01:14:33.494Z,101805.06
2022-10-27T01:17:11.083Z,101807.74
2022-10-27T01:19:52.539Z,101804.88
2022-10-27T01:22:30.438Z,101803.77
2022-10-27T01:24:46.343Z,101798.66
2022-10-27T01:27:07.024Z,101797.51
2022-10-27T01:29:39.610Z,101799.16
2022-10-27T01:32:12.533Z,101800.48
2022-10-27T01:34:54.934Z,101809.11
2022-10-27T01:37:27.247Z,101818.55
2022-10-27T01:39:38.051Z,101823.23
2022-10-27T01:41:59.902Z,101821.38
2022-10-27T01:44:12.807Z,101823.89
2022-10-27T01:46:20.541Z,101821.92
2022-10-27T01:48:26.973Z,101822.39
2022-10-27T01:50:45.203Z,101817.25
2022-10-27T01:53:03.835Z,101820.51
2022-10-27T01:55:28.042Z,101823.26
2022-10-27T01:58:18.800Z,101827.80
2022-10-27T02:00:25.053Z,101829.77
2022-10-27T02:02:49.859Z,101833.81
2022-10-27T02:04:59.580Z,101834.94
2022-10-27T02:07:15.383Z,101834.60
2022-10-27T02:09:48.237Z,101832.98
2022-10-27T02:11:57.510Z,101839.09
2022-10-27T02:14:03.560Z,101835.78
2022-10-27T02:16:32.490Z,101837.85
2022-10-27T02:18:47.576Z,101840.75
2022-10-27T02:20:59.045Z,101841.08
2022-10-27T02:23:10.609Z,101838.22
2022-10-27T02:25:17.931Z,101837.73
2022-10-27T02:27:37.157Z,101837.00
2022-10-27T02:29:49.617Z,101836.42
2022-10-27T02:32:00.579Z,101838.52
2022-10-27T02:34:07.973Z,101839.88
2022-10-27T02:36:14.365Z,101842.23
2022-10-27T02:38:20.862Z,101839.76
2022-10-27T02:40:27.726Z,101837.34
2022-10-27T02:42:33.968Z,101830.41
2022-10-27T02:44:40.314Z,101834.88
2022-10-27T02:46:48.493Z,101830.30
2022-10-27T02:48:56.999Z,101828.39
2022-10-27T02:51:03.705Z,101832.52
2022-10-27T02:53:11.134Z,101834.56
2022-10-27T02:55:17.588Z,101838.52
2022-10-27T02:57:24.581Z,101840.13
2022-10-27T02:59:30.905Z,101839.40
2022-10-27T03:01:37.438Z,101838.20
2022-10-27T03:03:44.074Z,101841.91
2022-10-27T03:05:50.766Z,101841.17
2022-10-27T03:07:57.408Z,101841.50
2022-10-27T03:10:04.324Z,101844.02
2022-10-27T03:12:10.847Z,101845.81
2022-10-27T03:14:16.965Z,101839.34
2022-10-27T03:16:23.572Z,101835.96
2022-10-27T03:18:29.695Z,101834.54
2022-10-27T03:20:36.045Z,101833.09
2022-10-27T03:22:42.880Z,101836.42
2022-10-27T03:24:48.925Z,101840.19
2022-10-27T03:26:55.606Z,101840.83
2022-10-27T03:29:02.595Z,101839.13
2022-10-27T03:31:08.999Z,101839.48
2022-10-27T03:33:15.309Z,101842.42
2022-10-27T03:35:22.101Z,101844.92
2022-10-27T03:37:28.567Z,101848.79
2022-10-27T03:39:35.119Z,101855.52
2022-10-27T03:41:41.825Z,101860.41
2022-10-27T03:43:48.569Z,101858.77
2022-10-27T03:45:57.281Z,101860.73
2022-10-27T03:48:13.792Z,101858.80
2022-10-27T03:50:20.241Z,101864.60
2022-10-27T03:52:28.525Z,101865.51
2022-10-27T03:54:37.741Z,101866.19
2022-10-27T03:56:44.272Z,101864.83
2022-10-27T03:58:50.896Z,101867.73
2022-10-27T04:01:03.498Z,101871.10
2022-10-27T04:03:09.313Z,101867.36
2022-10-27T04:05:16.436Z,101874.30
2022-10-27T04:07:22.731Z,101871.61
2022-10-27T04:09:29.393Z,101877.39
2022-10-27T04:11:35.801Z,101874.59
2022-10-27T04:13:42.517Z,101872.95
2022-10-27T04:15:48.982Z,101870.34
2022-10-27T04:17:57.793Z,101871.45
2022-10-27T04:20:04.348Z,101873.04
2022-10-27T04:22:10.886Z,101868.88
2022-10-27T04:24:17.381Z,101865.54
2022-10-27T04:26:23.643Z,101863.93
2022-10-27T04:28:29.899Z,101866.31
2022-10-27T04:30:36.537Z,101865.59
2022-10-27T04:32:43.424Z,101871.52
2022-10-27T04:34:50.062Z,101871.59
2022-10-27T04:36:57.688Z,101869.59
2022-10-27T04:39:04.187Z,101870.17
2022-10-27T04:41:10.547Z,101874.15
2022-10-27T04:43:16.848Z,101873.85
2022-10-27T04:45:23.268Z,101872.06
2022-10-27T04:47:29.832Z,101873.61
2022-10-27T04:49:36.661Z,101873.71
2022-10-27T04:51:43.257Z,101870.98
2022-10-27T04:53:49.666Z,101869.03
2022-10-27T04:55:56.348Z,101864.23
2022-10-27T04:58:05.532Z,101861.46
2022-10-27T05:00:13.998Z,101870.77
2022-10-27T05:02:21.137Z,101876.05
2022-10-27T05:04:28.095Z,101878.49
2022-10-27T05:06:34.791Z,101880.08
2022-10-27T05:08:41.521Z,101884.33
2022-10-27T05:10:48.269Z,101885.36
2022-10-27T05:12:54.913Z,101886.70
2022-10-27T05:15:01.694Z,101886.60
2022-10-27T05:17:08.329Z,101880.27
2022-10-27T05:19:14.712Z,101882.58
2022-10-27T05:21:21.170Z,101889.02
2022-10-27T05:23:27.815Z,101894.08
2022-10-27T05:25:34.441Z,101893.85
2022-10-27T05:27:40.946Z,101892.14
2022-10-27T05:29:47.617Z,101889.98
2022-10-27T05:31:54.428Z,101889.63
2022-10-27T05:36:13.243Z,101887.09
2022-10-27T05:38:20.058Z,101883.55
2022-10-27T05:40:26.727Z,101879.00
2022-10-27T05:42:33.425Z,101876.94
2022-10-27T05:44:39.958Z,101878.81
2022-10-27T05:46:46.311Z,101880.09
2022-10-27T05:48:52.455Z,101880.23
2022-10-27T05:50:59.072Z,101879.52
2022-10-27T05:53:05.614Z,101876.11
2022-10-27T05:55:11.993Z,101875.66
2022-10-27T05:57:19.491Z,101876.30
2022-10-27T05:59:25.634Z,101878.48
2022-10-27T06:01:31.783Z,101878.73
2022-10-27T06:03:38.116Z,101886.46
2022-10-27T06:05:44.764Z,101891.58
2022-10-27T06:07:51.831Z,101895.42
2022-10-27T06:09:57.957Z,101887.42
2022-10-27T06:12:04.885Z,101889.29
2022-10-27T06:14:11.160Z,101892.89
2022-10-27T06:16:17.742Z,101893.12
2022-10-27T06:18:23.981Z,101895.47
2022-10-27T06:20:30.505Z,101894.85
2022-10-27T06:22:36.913Z,101892.50
2022-10-27T06:24:42.859Z,101893.35
2022-10-27T06:26:51.947Z,101893.73
2022-10-27T06:29:00.601Z,101893.98
2022-10-27T06:31:06.799Z,101893.12
2022-10-27T06:33:12.792Z,101895.38
2022-10-27T06:35:19.749Z,101895.34
2022-10-27T06:37:25.685Z,101899.06
2022-10-27T06:39:32.564Z,101901.01
2022-10-27T06:41:38.749Z,101908.19
2022-10-27T06:43:44.981Z,101909.06
2022-10-27T06:45:51.463Z,101907.75
2022-10-27T06:48:03.090Z,101904.12
2022-10-27T06:50:09.608Z,101899.46
2022-10-27T06:52:19.292Z,101897.94
2022-10-27T06:54:25.366Z,101898.51
2022-10-27T06:56:31.631Z,101895.41
2022-10-27T06:58:41.258Z,101898.15
2022-10-27T07:00:48.336Z,101900.30
2022-10-27T07:02:55.139Z,101902.40
2022-10-27T07:05:02.489Z,101901.36
2022-10-27T07:07:09.785Z,101907.05
2022-10-27T07:09:16.240Z,101906.58
2022-10-27T07:11:23.338Z,101908.55
2022-10-27T07:13:29.980Z,101906.73
2022-10-27T07:15:39.260Z,101909.39
2022-10-27T07:17:46.133Z,101908.06
2022-10-27T07:19:52.538Z,101907.64
2022-10-27T07:21:58.897Z,101910.73
2022-10-27T07:24:05.087Z,101912.30
2022-10-27T07:26:11.237Z,101908.77
2022-10-27T07:28:19.299Z,101909.02
2022-10-27T07:30:30.058Z,101910.08
2022-10-27T07:32:36.481Z,101908.52
2022-10-27T07:34:42.822Z,101909.61
2022-10-27T07:36:49.238Z,101912.66
2022-10-27T07:38:55.701Z,101911.62
2022-10-27T07:41:02.218Z,101912.08
2022-10-27T07:43:09.234Z,101905.64
2022-10-27T07:45:17.107Z,101903.44
2022-10-27T07:47:23.312Z,101901.30
2022-10-27T07:49:29.777Z,101898.70
2022-10-27T07:51:36.147Z,101896.60
2022-10-27T07:53:42.079Z,101897.86
2022-10-27T07:55:48.767Z,101896.34
2022-10-27T07:58:08.942Z,101895.92
2022-10-27T08:00:18.576Z,101893.94
2022-10-27T08:02:24.637Z,101896.34
2022-10-27T08:04:30.812Z,101895.08
2022-10-27T08:06:36.699Z,101900.80
2022-10-27T08:08:43.085Z,101899.95
2022-10-27T08:10:51.537Z,101893.73
2022-10-27T08:12:58.112Z,101894.31
2022-10-27T08:15:04.690Z,101892.90
2022-10-27T08:17:10.912Z,101895.96
2022-10-27T08:19:18.019Z,101892.79
2022-10-27T08:21:24.431Z,101892.05
2022-10-27T08:23:31.096Z,101889.12
2022-10-27T08:25:37.824Z,101887.35
2022-10-27T08:27:43.986Z,101880.36
2022-10-27T08:29:50.536Z,101874.08
2022-10-27T08:31:56.515Z,101874.59
2022-10-27T08:34:02.931Z,101877.33
2022-10-27T08:36:09.075Z,101874.44
2022-10-27T08:38:17.629Z,101871.35
2022-10-27T08:40:23.989Z,101867.75
2022-10-27T08:42:36.317Z,101865.42
2022-10-27T08:44:51.317Z,101871.70
2022-10-27T08:47:12.310Z,101875.73
2022-10-27T08:49:31.266Z,101876.02
2022-10-27T08:51:38.155Z,101875.23
2022-10-27T08:53:47.798Z,101872.41
2022-10-27T08:55:57.277Z,101870.70
2022-10-27T08:58:25.428Z,101872.95
2022-10-27T09:00:40.986Z,101867.52
2022-10-27T09:03:08.066Z,101867.73
2022-10-27T09:05:38.581Z,101868.96
2022-10-27T09:08:18.447Z,101867.14
2022-10-27T09:10:53.289Z,101866.98
2022-10-27T09:13:26.911Z,101860.83
2022-10-27T09:15:42.363Z,101859.21
2022-10-27T09:18:08.284Z,101854.15
2022-10-27T09:20:52.687Z,101859.14
2022-10-27T09:23:08.166Z,101856.30
2022-10-27T09:25:22.505Z,101855.38
2022-10-27T09:27:29.127Z,101852.77
2022-10-27T09:29:38.452Z,101844.72
2022-10-27T09:32:08.399Z,101839.31
2022-10-27T09:34:39.521Z,101842.95
2022-10-27T09:36:46.169Z,101845.42
2022-10-27T09:38:52.508Z,101846.66
2022-10-27T09:40:59.495Z,101847.44
2022-10-27T09:43:06.043Z,101847.45
2022-10-27T09:45:24.246Z,101848.88
2022-10-27T09:47:36.836Z,101848.33
2022-10-27T09:49:49.421Z,101851.40
2022-10-27T09:52:21.729Z,101850.11
2022-10-27T09:54:37.818Z,101849.23
2022-10-27T09:56:44.380Z,101842.77
2022-10-27T09:59:03.626Z,101845.70
2022-10-27T10:01:12.398Z,101842.28
2022-10-27T10:03:23.430Z,101843.85
2022-10-27T10:05:35.648Z,101837.73
2022-10-27T10:07:44.591Z,101837.10
2022-10-27T10:10:03.762Z,101835.10
2022-10-27T10:12:24.586Z,101836.27
2022-10-27T10:14:31.468Z,101839.77
2022-10-27T10:16:37.748Z,101842.92
2022-10-27T10:19:07.132Z,101845.79
2022-10-27T10:21:16.195Z,101847.02
2022-10-27T10:23:25.500Z,101843.22
2022-10-27T10:25:48.318Z,101840.95
2022-10-27T10:28:08.598Z,101838.96
2022-10-27T10:30:21.363Z,101838.35
2022-10-27T10:32:37.056Z,101838.98
2022-10-27T10:34:46.862Z,101833.34
2022-10-27T10:36:53.580Z,101833.50
2022-10-27T10:39:01.313Z,101834.70
2022-10-27T10:41:18.729Z,101831.48
2022-10-27T10:43:25.546Z,101829.71
2022-10-27T10:45:36.577Z,101828.42
2022-10-27T10:47:49.951Z,101831.35
2022-10-27T10:50:00.916Z,101829.38
2022-10-27T10:52:17.695Z,101827.90
2022-10-27T10:54:47.282Z,101827.01
2022-10-27T10:56:55.304Z,101824.89
2022-10-27T10:59:22.193Z,101825.70
2022-10-27T11:01:42.930Z,101824.09
2022-10-27T11:03:55.088Z,101821.61
2022-10-27T11:06:02.129Z,101819.30
2022-10-27T11:08:22.699Z,101819.00
2022-10-27T11:10:39.181Z,101815.14
2022-10-27T11:12:50.654Z,101813.18
2022-10-27T11:15:00.017Z,101813.66
2022-10-27T11:17:06.629Z,101812.27
2022-10-27T11:19:18.411Z,101810.26
2022-10-27T11:21:57.462Z,101805.40
2022-10-27T11:24:12.666Z,101804.23
2022-10-27T11:26:24.282Z,101805.39
2022-10-27T11:29:00.637Z,101800.92
2022-10-27T11:31:13.654Z,101800.15
2022-10-27T11:33:34.117Z,101805.42
2022-10-27T11:36:14.907Z,101800.80
2022-10-27T11:38:53.857Z,101800.30
2022-10-27T11:41:16.649Z,101804.08
2022-10-27T11:44:00.116Z,101801.72
2022-10-27T11:46:16.141Z,101801.87
2022-10-27T11:48:36.531Z,101805.31
2022-10-27T11:50:56.314Z,101799.66
2022-10-27T11:53:04.361Z,101794.04
2022-10-27T11:55:14.141Z,101791.47
2022-10-27T11:57:42.265Z,101793.02
2022-10-27T12:00:04.665Z,101788.70
2022-10-27T12:02:28.182Z,101786.92
2022-10-27T12:04:49.459Z,101783.46
2022-10-27T12:07:04.035Z,101777.05
2022-10-27T12:09:16.352Z,101781.39
2022-10-27T12:11:40.511Z,101779.98
2022-10-27T12:14:09.852Z,101778.05
2022-10-27T12:16:42.072Z,101778.71
2022-10-27T12:19:04.862Z,101775.56
2022-10-27T12:21:27.121Z,101777.71
2022-10-27T12:23:42.470Z,101777.16
2022-10-27T12:26:08.990Z,101778.55
2022-10-27T12:28:16.873Z,101777.90
2022-10-27T12:30:27.023Z,101778.12
2022-10-27T12:32:41.430Z,101776.25
2022-10-27T12:35:04.026Z,101778.48
2022-10-27T12:37:26.707Z,101778.59
2022-10-27T12:39:44.877Z,101776.02
2022-10-27T12:41:56.219Z,101775.89
2022-10-27T12:44:38.072Z,101769.34
2022-10-27T12:46:47.108Z,101768.23
2022-10-27T12:49:06.276Z,101769.98
2022-10-27T12:51:30.678Z,101769.56
2022-10-27T12:54:03.456Z,101760.23
2022-10-27T12:56:29.010Z,101754.83
2022-10-27T12:58:48.551Z,101753.77
2022-10-27T13:01:02.383Z,101756.89
2022-10-27T13:03:41.100Z,101752.92
2022-10-27T13:06:12.248Z,101751.34
2022-10-27T13:08:18.132Z,101755.11
2022-10-27T13:10:31.157Z,101751.25
2022-10-27T13:13:03.391Z,101751.02
2022-10-27T13:15:36.329Z,101751.78
2022-10-27T13:18:01.017Z,101751.20
2022-10-27T13:20:19.445Z,101750.42
2022-10-27T13:22:42.242Z,101749.02
2022-10-27T13:25:20.474Z,101751.13
2022-10-27T13:27:33.507Z,101751.70
2022-10-27T13:30:00.075Z,101753.21
2022-10-27T13:32:24.584Z,101754.73
2022-10-27T13:34:31.216Z,101752.26
2022-10-27T13:36:39.391Z,101752.31
2022-10-27T13:38:46.011Z,101753.38
2022-10-27T13:40:54.286Z,101752.45
2022-10-27T13:43:25.931Z,101749.92
2022-10-27T13:45:32.698Z,101745.32
2022-10-27T13:47:38.859Z,101747.37
2022-10-27T13:49:45.350Z,101743.30
2022-10-27T13:52:17.159Z,101739.77
2022-10-27T13:54:57.018Z,101735.72
2022-10-27T13:57:25.844Z,101738.77
2022-10-27T13:59:36.112Z,101733.33
2022-10-27T14:01:52.013Z,101731.39
2022-10-27T14:04:49.602Z,101730.06
2022-10-27T14:09:25.881Z,101731.05
2022-10-27T14:11:32.869Z,101731.22
2022-10-27T14:13:49.948Z,101723.85
2022-10-27T14:16:03.430Z,101720.38
2022-10-27T14:18:39.267Z,101725.92
2022-10-27T14:20:46.206Z,101725.49
2022-10-27T14:22:56.886Z,101725.34
2022-10-27T14:25:17.660Z,101723.17
2022-10-27T14:27:25.435Z,101716.38
2022-10-27T14:29:33.544Z,101716.38
2022-10-27T14:31:42.701Z,101723.10
2022-10-27T14:33:52.769Z,101722.98
2022-10-27T14:36:18.382Z,101725.95
2022-10-27T14:38:25.028Z,101724.26
2022-10-27T14:40:40.820Z,101730.77
2022-10-27T14:42:48.185Z,101729.18
2022-10-27T14:45:05.388Z,101726.35
2022-10-27T14:47:18.040Z,101726.23
2022-10-27T14:49:34.901Z,101729.33
2022-10-27T14:51:41.575Z,101725.70
2022-10-27T14:53:53.775Z,101723.09
2022-10-27T14:56:20.816Z,101723.34
2022-10-27T14:58:27.414Z,101719.39
2022-10-27T15:00:37.928Z,101722.22
2022-10-27T15:02:45.172Z,101724.92
2022-10-27T15:04:52.857Z,101724.53
2022-10-27T15:07:03.926Z,101727.30
2022-10-27T15:09:25.921Z,101725.98
2022-10-27T15:11:32.575Z,101725.36
2022-10-27T15:13:38.929Z,101723.06
2022-10-27T15:15:47.787Z,101722.97
2022-10-27T15:17:53.975Z,101721.65
2022-10-27T15:20:02.946Z,101727.23
2022-10-27T15:22:09.257Z,101730.16
2022-10-27T15:24:20.500Z,101729.35
2022-10-27T15:26:31.479Z,101726.95
2022-10-27T15:28:40.133Z,101721.91
2022-10-27T15:30:46.827Z,101719.96
2022-10-27T15:32:54.011Z,101717.15
2022-10-27T15:35:00.790Z,101717.79
2022-10-27T15:37:28.580Z,101719.98
2022-10-27T15:39:35.149Z,101715.64
2022-10-27T15:41:52.767Z,101717.48
2022-10-27T15:44:04.504Z,101721.70
2022-10-27T15:46:31.528Z,101724.37
2022-10-27T15:48:40.990Z,101724.95
2022-10-27T15:51:06.242Z,101732.50
2022-10-27T15:53:21.464Z,101743.16
2022-10-27T15:55:29.035Z,101744.33
2022-10-27T15:57:39.746Z,101739.83
2022-10-27T16:00:14.973Z,101746.39
2022-10-27T16:02:30.193Z,101739.23
2022-10-27T16:04:46.086Z,101740.15
2022-10-27T16:07:15.618Z,101746.22
2022-10-27T16:09:46.467Z,101746.11
2022-10-27T16:11:53.013Z,101750.46
2022-10-27T16:14:02.549Z,101754.19
2022-10-27T16:16:09.892Z,101750.98
2022-10-27T16:18:20.266Z,101753.37
2022-10-27T16:20:35.274Z,101752.30
2022-10-27T16:22:41.323Z,101747.64
2022-10-27T16:24:48.273Z,101743.52
2022-10-27T16:26:56.685Z,101745.75
2022-10-27T16:29:02.907Z,101743.54
2022-10-27T16:31:15.304Z,101744.70
2022-10-27T16:33:25.758Z,101745.14
2022-10-27T16:35:33.184Z,101743.36
2022-10-27T16:37:39.756Z,101742.82
2022-10-27T16:39:46.275Z,101743.30
2022-10-27T16:41:53.040Z,101746.91
2022-10-27T16:43:59.553Z,101747.32
2022-10-27T16:46:06.702Z,101747.86
2022-10-27T16:48:14.724Z,101750.33
2022-10-27T16:50:21.378Z,101749.04
2022-10-27T16:52:28.003Z,101742.71
2022-10-27T16:54:41.651Z,101736.65
2022-10-27T16:56:48.517Z,101731.67
2022-10-27T16:58:54.806Z,101730.80
2022-10-27T17:01:08.567Z,101730.35
2022-10-27T17:03:16.573Z,101728.02
2022-10-27T17:05:23.301Z,101730.39
2022-10-27T17:07:30.766Z,101727.45
2022-10-27T17:09:37.470Z,101726.44
2022-10-27T17:11:44.831Z,101723.31
2022-10-27T17:13:51.073Z,101713.04
2022-10-27T17:15:57.651Z,101710.95
2022-10-27T17:18:03.831Z,101711.27
2022-10-27T17:20:10.397Z,101712.69
2022-10-27T17:22:16.747Z,101714.97
2022-10-27T17:24:23.170Z,101714.26
2022-10-27T17:26:29.264Z,101720.23
2022-10-27T17:28:35.902Z,101719.92
2022-10-27T17:30:41.888Z,101720.98
2022-10-27T17:32:48.546Z,101714.27
2022-10-27T17:34:54.972Z,101712.66
2022-10-27T17:37:01.736Z,101714.29
2022-10-27T17:39:09.030Z,101710.26
2022-10-27T17:41:15.405Z,101711.64
2022-10-27T17:43:22.481Z,101708.16
2022-10-27T17:45:28.617Z,101705.24
2022-10-27T17:47:35.524Z,101702.11
2022-10-27T17:49:42.473Z,101695.77
2022-10-27T17:51:48.849Z,101699.16
2022-10-27T17:53:55.738Z,101696.98
2022-10-27T17:56:04.740Z,101704.20
2022-10-27T17:58:11.420Z,101699.20
2022-10-27T18:00:18.240Z,101696.49
2022-10-27T18:02:25.528Z,101692.09
2022-10-27T18:04:32.040Z,101689.85
2022-10-27T18:06:39.588Z,101691.23
2022-10-27T18:08:46.438Z,101687.34
2022-10-27T18:10:54.829Z,101691.17
2022-10-27T18:13:00.941Z,101693.34
2022-10-27T18:15:34.062Z,101691.70
2022-10-27T18:17:34.731Z,101695.61
2022-10-27T18:19:41.981Z,101699.41
2022-10-27T18:21:49.482Z,101699.87
2022-10-27T18:23:58.078Z,101699.56
2022-10-27T18:26:06.438Z,101694.41
2022-10-27T18:28:12.766Z,101693.88
2022-10-27T18:30:20.174Z,101691.89
2022-10-27T18:32:26.468Z,101686.76
2022-10-27T18:34:32.723Z,101684.71
2022-10-27T18:36:39.985Z,101689.95
2022-10-27T18:38:46.784Z,101690.45
2022-10-27T18:40:52.909Z,101691.06
2022-10-27T18:43:01.244Z,101686.02
2022-10-27T18:45:08.827Z,101687.95
2022-10-27T18:47:15.689Z,101687.02
2022-10-27T18:49:30.480Z,101686.88
2022-10-27T18:51:48.348Z,101684.65
2022-10-27T18:53:59.147Z,101689.45
2022-10-27T18:56:08.390Z,101681.42
2022-10-27T18:58:14.351Z,101679.70
2022-10-27T19:00:20.856Z,101679.90
2022-10-27T19:02:27.251Z,101678.67
2022-10-27T19:04:33.837Z,101671.52
2022-10-27T19:06:40.109Z,101666.94
2022-10-27T19:08:46.393Z,101662.14
2022-10-27T19:10:52.713Z,101659.45
2022-10-27T19:12:58.766Z,101659.67
2022-10-27T19:15:05.473Z,101654.29
2022-10-27T19:17:11.529Z,101655.59
2022-10-27T19:19:17.541Z,101656.75
2022-10-27T19:21:23.653Z,101652.42
2022-10-27T19:23:30.553Z,101649.18
2022-10-27T19:25:36.404Z,101638.16
2022-10-27T19:27:42.785Z,101637.13
2022-10-27T19:29:48.862Z,101633.23
2022-10-27T19:31:54.863Z,101625.61
2022-10-27T19:34:01.422Z,101627.05
2022-10-27T19:36:12.060Z,101618.73
2022-10-27T19:38:19.114Z,101614.36
2022-10-27T19:40:25.613Z,101615.47
2022-10-27T19:42:32.009Z,101612.05
2022-10-27T19:44:38.001Z,101605.73
2022-10-27T19:46:44.531Z,101605.48
2022-10-27T19:49:01.505Z,101602.09
2022-10-27T19:51:19.825Z,101599.61
2022-10-27T19:53:26.056Z,101589.86
2022-10-27T19:55:33.935Z,101586.59
2022-10-27T19:57:40.540Z,101582.98
2022-10-27T19:59:46.905Z,101580.99
2022-10-27T20:01:55.003Z,101579.63
2022-10-27T20:04:03.273Z,101570.96
2022-10-27T20:06:10.912Z,101572.70
2022-10-27T20:08:17.690Z,101576.02
2022-10-27T20:10:24.353Z,101568.53
2022-10-27T20:12:31.449Z,101564.45
2022-10-27T20:14:37.762Z,101565.56
2022-10-27T20:16:45.909Z,101563.65
2022-10-27T20:18:53.070Z,101560.02
2022-10-27T20:20:59.470Z,101551.82
2022-10-27T20:23:05.919Z,101546.55
2022-10-27T20:25:12.513Z,101540.14
2022-10-27T20:27:18.816Z,101537.35
2022-10-27T20:29:27.204Z,101537.83
2022-10-27T20:31:36.411Z,101539.55
2022-10-27T20:33:42.840Z,101536.92
2022-10-27T20:35:49.216Z,101531.27
2022-10-27T20:37:55.598Z,101530.73
2022-10-27T20:40:02.325Z,101528.26
2022-10-27T20:42:08.695Z,101527.80
2022-10-27T20:44:15.069Z,101525.40
2022-10-27T20:46:21.789Z,101522.69
2022-10-27T20:48:29.087Z,101511.02
2022-10-27T20:50:35.898Z,101512.34
2022-10-27T20:52:42.376Z,101506.05
2022-10-27T20:54:49.334Z,101505.91
2022-10-27T20:56:55.957Z,101504.42
2022-10-27T20:59:02.730Z,101503.98
2022-10-27T21:01:32.466Z,101510.25
2022-10-27T21:03:39.222Z,101505.30
2022-10-27T21:05:46.652Z,101505.78
2022-10-27T21:07:53.416Z,101501.43
2022-10-27T21:10:00.121Z,101498.08
2022-10-27T21:12:06.890Z,101498.90
2022-10-27T21:14:13.845Z,101500.06
2022-10-27T21:16:20.522Z,101499.30
2022-10-27T21:18:27.474Z,101493.03
2022-10-27T21:20:33.993Z,101489.83
2022-10-27T21:22:40.575Z,101489.02
2022-10-27T21:24:46.540Z,101488.90
2022-10-27T21:26:53.380Z,101481.83
2022-10-27T21:29:00.504Z,101484.54
2022-10-27T21:31:10.375Z,101480.67
2022-10-27T21:33:16.812Z,101478.95
2022-10-27T21:35:25.657Z,101475.40
2022-10-27T21:37:32.321Z,101477.00
2022-10-27T21:39:38.847Z,101475.64
2022-10-27T21:41:45.021Z,101471.57
2022-10-27T21:43:53.220Z,101469.42
2022-10-27T21:45:59.984Z,101463.16
2022-10-27T21:48:07.234Z,101454.05
2022-10-27T21:50:13.451Z,101445.15
2022-10-27T21:52:20.071Z,101444.98
2022-10-27T21:54:26.965Z,101438.94
2022-10-27T21:56:35.784Z,101436.90
2022-10-27T21:58:42.318Z,101433.27
2022-10-27T22:00:48.586Z,101429.96
2022-10-27T22:02:55.095Z,101434.40
2022-10-27T22:05:01.403Z,101432.23
2022-10-27T22:07:07.647Z,101431.87
2022-10-27T22:09:13.893Z,101432.33
2022-10-27T22:11:23.285Z,101437.45
2022-10-27T22:13:29.494Z,101431.55
2022-10-27T22:15:36.692Z,101424.06
2022-10-27T22:17:43.163Z,101421.45
2022-10-27T22:19:49.459Z,101420.74
2022-10-27T22:21:55.817Z,101414.31
2022-10-27T22:24:02.295Z,101416.45
2022-10-27T22:26:17.962Z,101414.42
2022-10-27T22:28:24.222Z,101412.44
2022-10-27T22:30:31.946Z,101413.23
2022-10-27T22:32:38.340Z,101412.67
2022-10-27T22:34:44.799Z,101406.21
2022-10-27T22:36:51.400Z,101404.63
2022-10-27T22:39:00.865Z,101396.76
2022-10-27T22:41:09.913Z,101389.71
2022-10-27T22:43:16.191Z,101385.94
2022-10-27T22:45:22.288Z,101385.54
2022-10-27T22:47:28.504Z,101385.21
2022-10-27T22:49:34.908Z,101387.46
2022-10-27T22:51:41.103Z,101388.47
2022-10-27T22:53:48.597Z,101387.20
2022-10-27T22:55:55.045Z,101391.48
2022-10-27T22:58:01.498Z,101386.30
2022-10-27T23:00:08.373Z,101385.73
2022-10-27T23:02:14.588Z,101391.58
2022-10-27T23:04:20.963Z,101393.04
2022-10-27T23:06:29.769Z,101396.39
2022-10-27T23:08:36.233Z,101396.15
2022-10-27T23:10:42.470Z,101389.39
2022-10-27T23:12:48.709Z,101385.73
2022-10-27T23:14:55.192Z,101386.00
2022-10-27T23:17:03.991Z,101382.85
2022-10-27T23:19:10.399Z,101373.05
2022-10-27T23:21:18.313Z,101359.45
2022-10-27T23:23:25.395Z,101352.86
2022-10-27T23:25:33.847Z,101355.52
2022-10-27T23:27:42.604Z,101351.33
2022-10-27T23:29:49.139Z,101354.39
2022-10-27T23:31:55.084Z,101349.73
2022-10-27T23:34:06.406Z,101342.31
2022-10-27T23:36:13.168Z,101341.23
2022-10-27T23:38:19.281Z,101337.80
2022-10-27T23:40:25.335Z,101336.06
2022-10-27T23:42:31.252Z,101330.59
2022-10-27T23:44:37.525Z,101322.61
2022-10-27T23:46:43.435Z,101312.88
2022-10-27T23:48:49.963Z,101309.80
2022-10-27T23:50:56.215Z,101306.69
2022-10-27T23:53:02.551Z,101309.30
2022-10-27T23:55:09.421Z,101310.42
2022-10-27T23:57:15.785Z,101304.41
2022-10-27T23:59:22.342Z,101306.02
